JA30PD RJOY-RJOY

Flight info

Callsign JA30PD
Flight time 0h 22m
Altitude 0
Route HIRAKATA UMEDA IZUMISANO
Aircraft H160/L-SDLOV/S

Departure

Time 2026-04-29 00:41
Airport Yao Airport (RJOY)

Arrival

Time 2026-04-29 01:03
Airport Yao Airport (RJOY)
Time Latitude Longitude Altitude Speed Heading
2026-04-29 00:38 34.59731 135.60622 41 ft 0 kts 358°
2026-04-29 00:39 34.59734 135.60622 48 ft 3 kts 355°
2026-04-29 00:39 34.59766 135.60595 54 ft 8 kts 278°
2026-04-29 00:39 34.59768 135.60504 60 ft 13 kts 272°
2026-04-29 00:40 34.59763 135.60411 49 ft 4 kts 273°
2026-04-29 00:40 34.59765 135.60407 52 ft 1 kts 274°
2026-04-29 00:40 34.59768 135.60373 119 ft 6 kts 274°
2026-04-29 00:40 34.59767 135.60281 364 ft 35 kts 277°
2026-04-29 00:41 34.59838 135.59846 608 ft 75 kts 292°
2026-04-29 00:41 34.59945 135.59361 759 ft 101 kts 292°
2026-04-29 00:41 34.60536 135.58655 976 ft 81 kts 353°
2026-04-29 00:41 34.61096 135.58698 1008 ft 83 kts 14°
2026-04-29 00:42 34.61627 135.58868 1032 ft 77 kts 16°
2026-04-29 00:42 34.62135 135.59043 1039 ft 75 kts 16°
2026-04-29 00:42 34.62704 135.59234 1022 ft 101 kts 15°
2026-04-29 00:42 34.63445 135.59474 1053 ft 111 kts 16°
2026-04-29 00:43 34.64138 135.59710 1051 ft 100 kts 16°
2026-04-29 00:43 34.64815 135.59916 1048 ft 100 kts
2026-04-29 00:43 34.65512 135.59933 1049 ft 101 kts 360°
2026-04-29 00:43 34.66220 135.59886 1048 ft 104 kts 359°
2026-04-29 00:44 34.66942 135.59831 1044 ft 106 kts 358°
2026-04-29 00:44 34.67670 135.59782 1050 ft 104 kts 358°
2026-04-29 00:44 34.68384 135.59749 1049 ft 102 kts 359°
2026-04-29 00:44 34.69101 135.59708 1052 ft 104 kts 359°
2026-04-29 00:45 34.69841 135.59666 1051 ft 108 kts 357°
2026-04-29 00:45 34.70334 135.59565 1051 ft 108 kts 349°
2026-04-29 00:45 34.71054 135.59351 1182 ft 108 kts 353°
2026-04-29 00:45 34.71752 135.59568 1446 ft 106 kts 32°
2026-04-29 00:46 34.72509 135.60365 1792 ft 107 kts 41°
2026-04-29 00:46 34.72861 135.60790 1948 ft 110 kts 42°
2026-04-29 00:46 34.73447 135.61473 2128 ft 118 kts 43°
2026-04-29 00:46 34.74025 135.62157 2199 ft 115 kts 42°
2026-04-29 00:47 34.74594 135.62840 2224 ft 115 kts 43°
2026-04-29 00:47 34.75156 135.63523 2240 ft 116 kts 43°
2026-04-29 00:47 34.75713 135.64227 2243 ft 116 kts 47°
2026-04-29 00:47 34.76215 135.65020 2247 ft 119 kts 51°
2026-04-29 00:48 34.76704 135.65828 2254 ft 118 kts 52°
2026-04-29 00:48 34.77189 135.66639 2249 ft 119 kts 51°
2026-04-29 00:48 34.77826 135.67236 2254 ft 114 kts 19°
2026-04-29 00:48 34.78593 135.67280 2251 ft 112 kts 351°
2026-04-29 00:49 34.79340 135.67038 2250 ft 113 kts 346°
2026-04-29 00:49 34.80089 135.66734 2254 ft 114 kts 343°
2026-04-29 00:49 34.80830 135.66396 2255 ft 114 kts 342°
2026-04-29 00:49 34.81548 135.66036 2266 ft 104 kts 334°
2026-04-29 00:50 34.82052 135.65514 2260 ft 87 kts 322°
2026-04-29 00:50 34.82433 135.65031 2256 ft 71 kts 324°
2026-04-29 00:50 34.82835 135.64754 2247 ft 67 kts 348°
2026-04-29 00:50 34.83289 135.64834 2250 ft 67 kts 18°
2026-04-29 00:51 34.83718 135.65038 2250 ft 66 kts 19°
2026-04-29 00:51 34.84065 135.65415 2251 ft 75 kts 63°
2026-04-29 00:51 34.83955 135.66043 2254 ft 83 kts 126°
2026-04-29 00:51 34.83409 135.66296 2255 ft 89 kts 188°
2026-04-29 00:52 34.82894 135.65954 2255 ft 83 kts 234°
2026-04-29 00:52 34.82524 135.65425 2251 ft 83 kts 240°
2026-04-29 00:52 34.82197 135.64867 2253 ft 80 kts 251°
2026-04-29 00:52 34.81881 135.64296 2251 ft 82 kts 242°
2026-04-29 00:53 34.81443 135.63831 2249 ft 88 kts 210°
2026-04-29 00:53 34.80828 135.63782 2255 ft 88 kts 175°
2026-04-29 00:53 34.80267 135.63878 2251 ft 76 kts 173°
2026-04-29 00:53 34.79738 135.63972 2251 ft 78 kts 173°
2026-04-29 00:54 34.79211 135.64062 2251 ft 76 kts 173°
2026-04-29 00:54 34.78748 135.64335 2250 ft 75 kts 123°
2026-04-29 00:54 34.78643 135.64896 2252 ft 65 kts 66°
2026-04-29 00:54 34.78930 135.65218 2251 ft 57 kts 10°
2026-04-29 00:55 34.79310 135.65178 2255 ft 53 kts 355°
2026-04-29 00:55 34.79663 135.65066 2249 ft 56 kts 334°
2026-04-29 00:55 34.79944 135.64739 2252 ft 55 kts 325°
2026-04-29 00:55 34.80212 135.64403 2249 ft 56 kts 324°
2026-04-29 00:56 34.80550 135.64248 2250 ft 56 kts 12°
2026-04-29 00:56 34.80757 135.64656 2252 ft 67 kts 83°
2026-04-29 00:56 34.80466 135.65124 2252 ft 79 kts 153°
2026-04-29 00:56 34.79941 135.65065 2252 ft 76 kts 223°
2026-04-29 00:57 34.79764 135.64558 2248 ft 62 kts 291°
2026-04-29 00:57 34.80073 135.64254 2235 ft 72 kts 354°
2026-04-29 00:57 34.80538 135.64540 2254 ft 79 kts 51°
2026-04-29 00:57 34.80577 135.65221 2252 ft 91 kts 106°
2026-04-29 00:58 34.80102 135.65736 2253 ft 96 kts 162°
2026-04-29 00:58 34.79452 135.65632 2244 ft 98 kts 215°
2026-04-29 00:58 34.78876 135.65006 2230 ft 128 kts 231°
2026-04-29 00:58 34.78201 135.64166 2250 ft 145 kts 232°
2026-04-29 00:59 34.77522 135.63303 2255 ft 140 kts 232°
2026-04-29 00:59 34.76867 135.62428 2253 ft 139 kts 239°
2026-04-29 00:59 34.76388 135.61420 2254 ft 137 kts 251°
2026-04-29 00:59 34.76028 135.60352 2255 ft 136 kts 256°
2026-04-29 01:00 34.75673 135.59279 2243 ft 139 kts 253°
2026-04-29 01:00 34.75238 135.58236 2184 ft 137 kts 249°
2026-04-29 01:00 34.74784 135.57203 2038 ft 140 kts 248°
2026-04-29 01:00 34.74217 135.56244 1865 ft 140 kts 232°
2026-04-29 01:01 34.73526 135.55418 1687 ft 140 kts 229°
2026-04-29 01:01 34.72805 135.54623 1524 ft 133 kts 228°
2026-04-29 01:01 34.72174 135.53939 1348 ft 114 kts 226°
2026-04-29 01:01 34.71527 135.53363 1178 ft 116 kts 219°
2026-04-29 01:02 34.70863 135.52811 1099 ft 114 kts 227°
2026-04-29 01:02 34.70490 135.52087 1084 ft 92 kts 259°
2026-04-29 01:02 34.70319 135.51406 1068 ft 77 kts 262°
2026-04-29 01:02 34.70164 135.50833 1065 ft 65 kts 263°
2026-04-29 01:03 34.70020 135.50353 1050 ft 60 kts 262°
2026-04-29 01:03 34.69873 135.49873 1054 ft 61 kts 261°
2026-04-29 01:03 34.69830 135.49394 1051 ft 54 kts 291°
2026-04-29 01:03 34.70030 135.49068 1049 ft 48 kts 342°
2026-04-29 01:04 34.70335 135.49155 1053 ft 47 kts 30°
2026-04-29 01:04 34.70541 135.49465 1051 ft 46 kts 46°
2026-04-29 01:04 34.70630 135.49852 1048 ft 56 kts 87°
2026-04-29 01:04 34.70359 135.50227 1054 ft 65 kts 155°
2026-04-29 01:05 34.69922 135.50149 1047 ft 66 kts 219°
2026-04-29 01:05 34.69657 135.49724 1051 ft 60 kts 258°
2026-04-29 01:05 34.69548 135.49250 1047 ft 56 kts 276°
2026-04-29 01:05 34.69719 135.48882 1048 ft 49 kts 331°
2026-04-29 01:06 34.70029 135.48798 1051 ft 46 kts
2026-04-29 01:06 34.70318 135.48972 1051 ft 47 kts 31°
2026-04-29 01:06 34.70546 135.49262 1054 ft 47 kts 42°
2026-04-29 01:06 34.70701 135.49618 1048 ft 49 kts 60°
2026-04-29 01:07 34.70615 135.50063 1053 ft 63 kts 122°
2026-04-29 01:07 34.70205 135.50239 1050 ft 67 kts 186°
2026-04-29 01:07 34.69817 135.49948 1052 ft 65 kts 234°
2026-04-29 01:07 34.69629 135.49484 1051 ft 60 kts 258°
2026-04-29 01:08 34.69626 135.49030 1046 ft 52 kts 306°
2026-04-29 01:08 34.69911 135.48857 1050 ft 46 kts
2026-04-29 01:08 34.70196 135.49012 1050 ft 44 kts 25°
2026-04-29 01:08 34.70415 135.49292 1052 ft 46 kts 43°
2026-04-29 01:09 34.70600 135.49622 1050 ft 50 kts 59°
2026-04-29 01:09 34.70590 135.50065 1054 ft 60 kts 109°
2026-04-29 01:09 34.70220 135.50333 1048 ft 68 kts 172°
2026-04-29 01:09 34.69799 135.50124 1049 ft 65 kts 237°
2026-04-29 01:10 34.69550 135.49680 1052 ft 62 kts 251°
2026-04-29 01:10 34.69367 135.49213 1049 ft 62 kts 250°
2026-04-29 01:10 34.69030 135.48859 1046 ft 69 kts 214°
2026-04-29 01:10 34.68475 135.48569 1041 ft 99 kts 206°
2026-04-29 01:11 34.67856 135.48259 1055 ft 94 kts 204°
2026-04-29 01:11 34.67258 135.48082 1055 ft 81 kts 193°
2026-04-29 01:11 34.66798 135.47857 1053 ft 66 kts 233°
2026-04-29 01:11 34.66714 135.47410 1049 ft 48 kts 294°
2026-04-29 01:12 34.66934 135.47188 1051 ft 41 kts 348°
2026-04-29 01:12 34.67193 135.47330 1052 ft 46 kts 39°
2026-04-29 01:12 34.67246 135.47730 1050 ft 54 kts 93°
2026-04-29 01:12 34.66906 135.48172 1032 ft 97 kts 150°
2026-04-29 01:13 34.66117 135.48256 1032 ft 132 kts 192°
2026-04-29 01:13 34.65184 135.47817 1230 ft 148 kts 207°
2026-04-29 01:13 34.64285 135.47294 1479 ft 142 kts 209°
2026-04-29 01:13 34.63402 135.46778 1692 ft 143 kts 209°
2026-04-29 01:14 34.62500 135.46282 1783 ft 142 kts 202°
2026-04-29 01:14 34.61531 135.46021 1818 ft 144 kts 187°
2026-04-29 01:14 34.60535 135.45979 1844 ft 141 kts 180°
2026-04-29 01:14 34.59548 135.46029 1841 ft 144 kts 178°
2026-04-29 01:15 34.58549 135.46072 1846 ft 144 kts 179°
2026-04-29 01:15 34.57541 135.46099 1849 ft 145 kts 183°
2026-04-29 01:15 34.56543 135.45985 1849 ft 145 kts 193°
2026-04-29 01:15 34.55591 135.45642 1844 ft 144 kts 205°
2026-04-29 01:16 34.54704 135.45067 1853 ft 144 kts 215°
2026-04-29 01:16 34.53849 135.44429 1849 ft 144 kts 210°
2026-04-29 01:16 34.52954 135.43918 1848 ft 142 kts 204°
2026-04-29 01:16 34.52014 135.43542 1848 ft 142 kts 198°
2026-04-29 01:17 34.51107 135.43093 1848 ft 143 kts 209°
2026-04-29 01:17 34.50241 135.42488 1854 ft 142 kts 217°
2026-04-29 01:17 34.49447 135.41789 1851 ft 140 kts 222°
2026-04-29 01:17 34.48718 135.40998 1852 ft 141 kts 229°
2026-04-29 01:18 34.48086 135.40102 1846 ft 139 kts 238°
2026-04-29 01:18 34.46921 135.38214 1849 ft 142 kts 230°
2026-04-29 01:18 34.46174 135.37411 1850 ft 144 kts 221°
2026-04-29 01:19 34.45354 135.36729 1850 ft 143 kts 215°
2026-04-29 01:19 34.44514 135.36060 1878 ft 144 kts 218°
2026-04-29 01:19 34.43736 135.35318 1881 ft 142 kts 222°
2026-04-29 01:19 34.42986 135.34518 1877 ft 142 kts 224°
2026-04-29 01:20 34.42290 135.33720 1894 ft 132 kts 229°
2026-04-29 01:20 34.41697 135.32995 1889 ft 112 kts 229°
2026-04-29 01:20 34.41183 135.32371 1879 ft 99 kts 229°
2026-04-29 01:20 34.40690 135.31791 1875 ft 99 kts 219°
2026-04-29 01:21 34.40141 135.31354 1882 ft 88 kts 214°
2026-04-29 01:21 34.39796 135.30855 1875 ft 71 kts 268°
2026-04-29 01:21 34.39945 135.30406 1878 ft 51 kts 334°
2026-04-29 01:21 34.40218 135.30408 1878 ft 35 kts 28°
2026-04-29 01:22 34.40398 135.30657 1867 ft 53 kts 48°
2026-04-29 01:22 34.40722 135.31120 1861 ft 91 kts 55°
2026-04-29 01:22 34.41098 135.31871 1873 ft 114 kts 59°
2026-04-29 01:22 34.41476 135.32662 1888 ft 102 kts 59°
2026-04-29 01:23 34.41800 135.33438 1880 ft 105 kts 65°
2026-04-29 01:23 34.42083 135.34247 1878 ft 104 kts 66°
2026-04-29 01:23 34.42413 135.35029 1878 ft 104 kts 58°
2026-04-29 01:23 34.42833 135.35763 1877 ft 107 kts 53°
2026-04-29 01:24 34.43268 135.36479 1870 ft 106 kts 53°
2026-04-29 01:24 34.43714 135.37192 1880 ft 104 kts 52°
2026-04-29 01:24 34.44165 135.37885 1872 ft 106 kts 55°
2026-04-29 01:24 34.44555 135.38625 1868 ft 106 kts 58°
2026-04-29 01:25 34.44948 135.39397 1881 ft 106 kts 58°
2026-04-29 01:25 34.45305 135.40167 1874 ft 105 kts 60°
2026-04-29 01:25 34.45681 135.40917 1844 ft 108 kts 54°
2026-04-29 01:25 34.45949 135.41754 1853 ft 108 kts 79°
2026-04-29 01:26 34.46013 135.42664 1851 ft 110 kts 84°
2026-04-29 01:26 34.46081 135.43591 1849 ft 110 kts 84°
2026-04-29 01:26 34.46130 135.44519 1849 ft 111 kts 84°
2026-04-29 01:26 34.46202 135.45448 1851 ft 109 kts 75°
2026-04-29 01:27 34.46475 135.46286 1848 ft 106 kts 63°
2026-04-29 01:27 34.46814 135.47101 1852 ft 110 kts 58°
2026-04-29 01:27 34.47224 135.47855 1846 ft 108 kts 55°
2026-04-29 01:27 34.47659 135.48607 1847 ft 109 kts 55°
2026-04-29 01:28 34.48156 135.49312 1851 ft 109 kts 48°
2026-04-29 01:28 34.48691 135.49926 1850 ft 107 kts 44°
2026-04-29 01:28 34.49193 135.50605 1849 ft 109 kts 50°
2026-04-29 01:28 34.49635 135.51320 1851 ft 105 kts 62°
2026-04-29 01:29 34.49844 135.52183 1848 ft 109 kts 75°
2026-04-29 01:29 34.49996 135.53086 1848 ft 108 kts 76°
2026-04-29 01:29 34.50218 135.53950 1845 ft 109 kts 59°
2026-04-29 01:29 34.50646 135.54698 1852 ft 107 kts 53°
2026-04-29 01:30 34.50972 135.55512 1846 ft 108 kts 69°
2026-04-29 01:30 34.51275 135.56355 1837 ft 113 kts 55°
2026-04-29 01:30 34.51627 135.56862 1763 ft 125 kts 43°
2026-04-29 01:30 34.52546 135.57691 1613 ft 121 kts 43°
2026-04-29 01:31 34.53138 135.58462 1449 ft 128 kts 48°
2026-04-29 01:31 34.53697 135.59300 1336 ft 129 kts 50°
2026-04-29 01:31 34.54264 135.60144 1291 ft 129 kts 50°
2026-04-29 01:31 34.54628 135.60692 1299 ft 119 kts 50°
2026-04-29 01:32 34.55204 135.61615 1273 ft 89 kts 50°
2026-04-29 01:32 34.55612 135.62090 1256 ft 78 kts 32°
2026-04-29 01:32 34.55919 135.62305 1251 ft 77 kts 29°
2026-04-29 01:32 34.56419 135.62550 1256 ft 75 kts 17°
2026-04-29 01:33 34.56875 135.62690 1207 ft 62 kts
2026-04-29 01:33 34.57269 135.62640 1079 ft 55 kts 356°
2026-04-29 01:33 34.57657 135.62573 993 ft 57 kts 356°
2026-04-29 01:33 34.58035 135.62499 944 ft 54 kts 356°
2026-04-29 01:34 34.58404 135.62431 890 ft 55 kts 354°
2026-04-29 01:34 34.58789 135.62387 840 ft 56 kts 356°
2026-04-29 01:34 34.59192 135.62310 714 ft 63 kts 341°
2026-04-29 01:34 34.59538 135.62002 593 ft 60 kts 321°
2026-04-29 01:35 34.59772 135.61604 480 ft 58 kts 294°
2026-04-29 01:35 34.59789 135.61152 422 ft 52 kts 279°
2026-04-29 01:35 34.59778 135.60716 270 ft 44 kts 284°
2026-04-29 01:35 34.59776 135.60470 211 ft 11 kts 283°
2026-04-29 01:36 34.59761 135.60410 99 ft 2 kts 281°
2026-04-29 01:36 34.59770 135.60406 87 ft 4 kts 99°
2026-04-29 01:36 34.59762 135.60462 74 ft 11 kts 100°
2026-04-29 01:36 34.59755 135.60559 70 ft 11 kts 100°
2026-04-29 01:37 34.59739 135.60604 73 ft 4 kts 111°
2026-04-29 01:37 34.59736 135.60613 67 ft 2 kts 356°
2026-04-29 01:37 34.59733 135.60621 54 ft 3 kts 359°
2026-04-29 01:37 34.59732 135.60620 39 ft 0 kts